サラエボ の空港の天気 - METARとTAF

サラエボ国際空港 ( LQSA / SJJ ) - ボスニア・ヘルツェゴビナ サラエボ
飛行場実況気象(Metar)
観測時間07/10 09:00 CEST (07/10 07:00 UTC)
風向・風速不定 1m/s
視程10km以上
天気現象
なし
気温19℃
湿度64%
気圧1019hPa
METARLQSA 100700Z VRB01KT CAVOK 19/12 Q1019 NOSIG
過去の天気等 Google飛行場航空写真 Wunderground天気予報

過去48時間のMETAR

飛行場予報(TAF)
発表時間: 7/10 07:00 CEST (7/10 05:00 UTC)
予報対象時間: 10日8時 CEST ~ 11日8時 CEST
風向・風速不定 1m/s
視程10km以上
なし
TAF LQSA 100500Z 1006/1106 VRB02KT CAVOK TX33/1014Z TN16/1006Z